Погода Дернана неделю

Дерна, Ливия

01 - 07 марта
  • 01марта
    Сегодня
    +13°
    +22°
    Ясно и безоблачно
    ВремяПогодаТемператураВлажностьДавлениеВетер, м/сВероятность осадков
    02:00Облачно с прояснениями+16°C84 %751 мм3.3 м/с13 %
    05:00Облачно с прояснениями+15°C74 %750 мм3.6 м/с17 %
    08:00Ясно и безоблачно+16°C71 %751 мм5.6 м/с7 %
    11:00Ясно и безоблачно+20°C26 %752 мм6.0 м/с2 %
    14:00Ясно и безоблачно+21°C33 %752 мм5.8 м/с2 %
    17:00Ясно и безоблачно+19°C57 %752 мм5.7 м/с2 %
    20:00Ясно и безоблачно+17°C74 %753 мм1.8 м/с2 %
    23:00Ясно и безоблачно+15°C66 %754 мм3.3 м/с3 %
  • 02марта
    Суббота
    +12°
    +22°
    Небольшая облачность
    ВремяПогодаТемператураВлажностьДавлениеВетер, м/сВероятность осадков
    02:00Ясно и безоблачно+15°C74 %755 мм4.5 м/с1 %
    05:00Ясно и безоблачно+13°C82 %754 мм3.8 м/с2 %
    08:00Ясно и безоблачно+15°C75 %756 мм3.9 м/с2 %
    11:00Практически безоблачно+20°C40 %756 мм6.3 м/с4 %
    14:00Небольшая облачность+20°C51 %756 мм8.3 м/с5 %
    17:00Ясно и безоблачно+20°C60 %755 мм8.2 м/с2 %
    20:00Небольшая облачность+17°C73 %757 мм5.3 м/с2 %
    23:00Практически безоблачно+14°C80 %757 мм4.5 м/с2 %
  • 03марта
    Воскресенье
    +12°
    +20°
    Ясно и безоблачно
    ВремяПогодаТемператураВлажностьДавлениеВетер, м/сВероятность осадков
    02:00Облачно с прояснениями+14°C83 %757 мм3.2 м/с2 %
    05:00Облачно с прояснениями+13°C84 %756 мм3.2 м/с3 %
    08:00Практически безоблачно+15°C78 %757 мм3.1 м/с5 %
    11:00Ясно и безоблачно+19°C59 %757 мм3.9 м/с5 %
    14:00Ясно и безоблачно+19°C68 %756 мм5.6 м/с2 %
    17:00Ясно и безоблачно+19°C70 %756 мм5.0 м/с2 %
    20:00Ясно и безоблачно+17°C81 %756 мм2.3 м/с2 %
    23:00Ясно и безоблачно+14°C84 %756 мм0.8 м/с2 %
  • 04марта
    Понедельник
    +13°
    +25°
    Ясно и безоблачно
    ВремяПогодаТемператураВлажностьДавлениеВетер, м/сВероятность осадков
    02:00Ясно и безоблачно+12°C92 %755 мм2.3 м/с2 %
    05:00Ясно и безоблачно+13°C91 %754 мм3.3 м/с2 %
    08:00Практически безоблачно+14°C87 %754 мм4.5 м/с2 %
    11:00Ясно и безоблачно+21°C43 %755 мм4.2 м/с2 %
    14:00Ясно и безоблачно+24°C32 %753 мм5.2 м/с2 %
    17:00Ясно и безоблачно+25°C29 %752 мм5.6 м/с2 %
    20:00Ясно и безоблачно+22°C28 %752 мм5.3 м/с2 %
    23:00Ясно и безоблачно+16°C48 %753 мм3.4 м/с2 %
  • 05марта
    Вторник
    +13°
    +20°
    Небольшая облачность
    ВремяПогодаТемператураВлажностьДавлениеВетер, м/сВероятность осадков
    02:00Ясно и безоблачно+15°C82 %753 мм7.7 м/с2 %
    05:00Ясно и безоблачно+14°C84 %754 мм7.2 м/с2 %
    08:00Ясно и безоблачно+15°C71 %755 мм6.0 м/с2 %
    11:00Ясно и безоблачно+18°C51 %756 мм6.8 м/с2 %
    14:00Небольшая облачность+19°C44 %756 мм8.3 м/с9 %
    17:00Практически безоблачно+19°C53 %756 мм8.0 м/с2 %
    20:00Практически безоблачно+17°C62 %757 мм6.3 м/с3 %
    23:00Практически безоблачно+14°C64 %757 мм5.3 м/с5 %
Мы используем cookies
Соглашаюсь